createdAt,value
2023-04-09T00:01:18.322Z,31.27
2023-04-09T00:03:44.963Z,30.83
2023-04-09T00:06:11.787Z,29.42
2023-04-09T00:08:38.376Z,28.30
2023-04-09T00:11:05.834Z,35.70
2023-04-09T00:13:39.162Z,31.90
2023-04-09T00:16:06.773Z,31.98
2023-04-09T00:18:33.390Z,31.35
2023-04-09T00:23:54.075Z,29.65
2023-04-09T00:26:21.478Z,29.93
2023-04-09T00:28:47.983Z,30.30
2023-04-09T00:31:14.805Z,27.63
2023-04-09T00:33:41.422Z,35.95
2023-04-09T00:39:02.413Z,25.53
2023-04-09T00:41:29.025Z,31.88
2023-04-09T00:43:58.304Z,28.73
2023-04-09T00:46:24.863Z,27.23
2023-04-09T00:48:52.257Z,33.75
2023-04-09T00:51:19.004Z,35.10
2023-04-09T00:53:46.622Z,29.70
2023-04-09T00:56:13.978Z,32.22
2023-04-09T00:58:41.726Z,31.98
2023-04-09T01:01:08.382Z,31.58
2023-04-09T01:03:35.877Z,29.73
2023-04-09T01:06:19.061Z,31.42
2023-04-09T01:08:56.059Z,28.55
2023-04-09T01:11:46.519Z,30.15
2023-04-09T01:14:32.925Z,32.30
2023-04-09T01:17:06.334Z,31.20
2023-04-09T01:20:00.387Z,27.65
2023-04-09T01:22:56.570Z,30.08
2023-04-09T01:25:41.024Z,32.28
2023-04-09T01:28:13.611Z,33.83
2023-04-09T01:30:49.301Z,28.33
2023-04-09T01:33:18.034Z,29.00
2023-04-09T01:35:46.893Z,30.05
2023-04-09T01:38:14.967Z,29.25
2023-04-09T01:40:42.558Z,30.67
2023-04-09T01:43:10.746Z,29.23
2023-04-09T01:45:37.538Z,26.67
2023-04-09T01:48:05.906Z,33.17
2023-04-09T01:50:34.037Z,32.00
2023-04-09T01:53:01.738Z,32.85
2023-04-09T01:55:28.395Z,38.97
2023-04-09T01:57:55.054Z,33.97
2023-04-09T02:00:21.812Z,23.52
2023-04-09T02:03:16.098Z,33.70
2023-04-09T02:05:46.862Z,30.88
2023-04-09T02:08:19.372Z,33.27
2023-04-09T02:13:49.927Z,32.17
2023-04-09T02:16:17.702Z,31.15
2023-04-09T02:18:44.311Z,27.40
2023-04-09T02:21:12.332Z,32.27
2023-04-09T02:23:39.128Z,32.42
2023-04-09T02:26:05.852Z,35.92
2023-04-09T02:28:32.537Z,35.70
2023-04-09T02:30:59.297Z,36.35
2023-04-09T02:33:26.081Z,34.40
2023-04-09T02:35:52.944Z,40.95
2023-04-09T02:38:19.573Z,36.83
2023-04-09T02:40:46.252Z,36.63
2023-04-09T02:43:13.054Z,27.80
2023-04-09T02:48:34.507Z,29.98
2023-04-09T02:53:55.856Z,39.50
2023-04-09T02:56:22.455Z,35.55
2023-04-09T02:58:52.144Z,31.03
2023-04-09T03:01:18.865Z,31.17
2023-04-09T03:03:45.827Z,39.45
2023-04-09T03:06:12.627Z,35.90
2023-04-09T03:08:39.434Z,31.63
2023-04-09T03:11:06.125Z,32.10
2023-04-09T03:13:32.896Z,29.77
2023-04-09T03:18:54.976Z,36.47
2023-04-09T03:21:21.724Z,33.35
2023-04-09T03:23:48.344Z,28.47
2023-04-09T03:26:14.841Z,30.20
2023-04-09T03:28:41.670Z,25.90
2023-04-09T03:31:08.411Z,25.08
2023-04-09T03:33:35.511Z,28.98
2023-04-09T03:36:02.174Z,32.23
2023-04-09T03:38:28.845Z,25.33
2023-04-09T03:40:56.472Z,31.05
2023-04-09T03:43:23.066Z,30.17
2023-04-09T03:45:49.676Z,32.90
2023-04-09T03:48:16.286Z,31.73
2023-04-09T03:50:42.790Z,27.73
2023-04-09T03:53:09.362Z,28.65
2023-04-09T03:55:37.809Z,24.05
2023-04-09T03:58:04.355Z,29.35
2023-04-09T04:02:58.088Z,30.25
2023-04-09T04:05:26.414Z,34.50
2023-04-09T04:07:53.797Z,30.33
2023-04-09T04:10:20.557Z,24.25
2023-04-09T04:12:47.333Z,32.50
2023-04-09T04:15:14.115Z,27.15
2023-04-09T04:17:41.075Z,32.45
2023-04-09T04:20:08.385Z,24.85
2023-04-09T04:22:35.743Z,34.10
2023-04-09T04:25:03.438Z,24.60
2023-04-09T04:27:30.008Z,31.42
2023-04-09T04:29:59.059Z,25.60
2023-04-09T04:32:26.119Z,24.70
2023-04-09T04:34:52.700Z,25.63
2023-04-09T04:37:19.168Z,26.57
2023-04-09T04:39:45.701Z,29.58
2023-04-09T04:42:12.362Z,29.55
2023-04-09T04:44:38.796Z,29.95
2023-04-09T04:47:05.369Z,26.48
2023-04-09T04:49:32.078Z,26.67
2023-04-09T04:51:58.859Z,24.77
2023-04-09T04:54:25.659Z,24.20
2023-04-09T04:56:52.340Z,23.58
2023-04-09T04:59:18.884Z,25.80
2023-04-09T05:01:45.755Z,28.20
2023-04-09T05:04:12.405Z,24.40
2023-04-09T05:06:38.991Z,22.92
2023-04-09T05:09:05.987Z,25.33
2023-04-09T05:17:21.367Z,24.67
2023-04-09T05:19:58.007Z,24.67
2023-04-09T05:22:24.739Z,26.75
2023-04-09T05:24:51.557Z,29.70
2023-04-09T05:27:19.579Z,28.87
2023-04-09T05:29:46.462Z,26.40
2023-04-09T05:32:13.033Z,27.80
2023-04-09T05:34:39.657Z,23.98
2023-04-09T05:37:06.177Z,28.08
2023-04-09T05:39:33.429Z,27.33
2023-04-09T05:42:00.037Z,27.33
2023-04-09T05:44:26.631Z,31.80
2023-04-09T05:46:53.281Z,31.27
2023-04-09T05:49:19.951Z,34.05
2023-04-09T05:51:46.806Z,27.70
2023-04-09T05:54:13.333Z,33.15
2023-04-09T05:56:39.852Z,32.53
2023-04-09T05:59:06.576Z,32.75
2023-04-09T06:01:33.365Z,40.05
2023-04-09T06:04:00.117Z,31.73
2023-04-09T06:06:27.503Z,36.97
2023-04-09T06:08:54.250Z,33.70
2023-04-09T06:11:22.990Z,33.50
2023-04-09T06:13:49.825Z,32.83
2023-04-09T06:16:16.958Z,34.40
2023-04-09T06:18:46.132Z,33.95
2023-04-09T06:21:13.734Z,34.63
2023-04-09T06:23:40.752Z,33.60
2023-04-09T06:26:07.463Z,36.63
2023-04-09T06:28:34.092Z,32.60
2023-04-09T06:31:00.843Z,32.20
2023-04-09T06:33:27.651Z,33.60
2023-04-09T06:35:54.323Z,33.92
2023-04-09T06:38:20.998Z,30.02
2023-04-09T06:40:47.616Z,29.67
2023-04-09T06:43:14.328Z,23.40
2023-04-09T06:45:41.257Z,25.48
2023-04-09T06:48:07.921Z,22.40
2023-04-09T06:50:34.566Z,26.23
2023-04-09T06:53:03.041Z,21.87
2023-04-09T06:55:29.654Z,23.88
2023-04-09T06:57:56.255Z,23.98
2023-04-09T07:00:23.205Z,19.73
2023-04-09T07:02:54.192Z,28.20
2023-04-09T07:05:20.855Z,22.93
2023-04-09T07:07:47.577Z,20.88
2023-04-09T07:10:14.131Z,20.75
2023-04-09T07:12:40.941Z,22.10
2023-04-09T07:15:08.008Z,22.67
2023-04-09T07:17:35.407Z,20.70
2023-04-09T07:20:02.332Z,21.55
2023-04-09T07:22:30.347Z,21.05
2023-04-09T07:24:57.011Z,21.00
2023-04-09T07:27:27.788Z,23.77
2023-04-09T07:29:56.956Z,19.83
2023-04-09T07:32:24.745Z,21.58
2023-04-09T07:34:52.514Z,19.27
2023-04-09T07:37:19.707Z,20.92
2023-04-09T07:39:46.825Z,19.67
2023-04-09T07:42:14.122Z,18.70
2023-04-09T07:44:41.113Z,18.98
2023-04-09T07:47:08.684Z,21.52
2023-04-09T07:49:36.744Z,17.40
2023-04-09T07:52:03.921Z,21.10
2023-04-09T07:54:31.935Z,22.17
2023-04-09T07:56:59.335Z,22.20
2023-04-09T07:59:27.725Z,19.25
2023-04-09T08:01:54.491Z,25.70
2023-04-09T08:04:21.820Z,15.98
2023-04-09T08:06:51.409Z,18.63
2023-04-09T08:09:18.678Z,18.42
2023-04-09T08:11:46.211Z,21.38
2023-04-09T08:14:13.701Z,15.93
2023-04-09T08:16:42.011Z,20.98
2023-04-09T08:19:09.905Z,15.00
2023-04-09T08:21:43.461Z,17.55
2023-04-09T08:24:11.896Z,18.05
2023-04-09T08:26:39.689Z,20.33
2023-04-09T08:29:07.032Z,17.38
2023-04-09T08:31:34.351Z,18.73
2023-04-09T08:34:01.234Z,22.55
2023-04-09T08:36:28.195Z,18.27
2023-04-09T08:38:56.637Z,20.38
2023-04-09T08:41:25.976Z,25.20
2023-04-09T08:46:23.766Z,19.23
2023-04-09T08:48:52.298Z,18.75
2023-04-09T08:51:21.645Z,23.88
2023-04-09T08:53:53.511Z,21.10
2023-04-09T08:56:22.267Z,21.83
2023-04-09T08:58:48.871Z,19.88
2023-04-09T09:01:28.282Z,19.48
2023-04-09T09:04:02.913Z,22.95
2023-04-09T09:06:36.092Z,26.10
2023-04-09T09:09:06.849Z,22.27
2023-04-09T09:11:35.993Z,20.00
2023-04-09T09:14:05.750Z,23.10
2023-04-09T09:16:35.029Z,21.40
2023-04-09T09:19:02.724Z,24.65
2023-04-09T09:21:30.122Z,24.23
2023-04-09T09:23:57.634Z,23.02
2023-04-09T09:26:29.765Z,21.15
2023-04-09T09:29:00.673Z,20.30
2023-04-09T09:31:28.294Z,21.40
2023-04-09T09:33:55.324Z,19.77
2023-04-09T09:36:33.224Z,21.70
2023-04-09T09:39:14.657Z,21.88
2023-04-09T09:41:42.938Z,21.20
2023-04-09T09:44:11.571Z,18.48
2023-04-09T09:46:41.667Z,19.13
2023-04-09T09:49:09.691Z,20.42
2023-04-09T09:51:39.673Z,20.90
2023-04-09T09:54:08.477Z,16.40
2023-04-09T09:56:38.071Z,20.17
2023-04-09T09:59:21.979Z,17.17
2023-04-09T10:01:58.245Z,23.83
2023-04-09T10:04:28.793Z,19.85
2023-04-09T10:06:56.775Z,17.90
2023-04-09T10:09:27.960Z,14.40
2023-04-09T10:11:56.264Z,21.50
2023-04-09T10:14:23.203Z,16.73
2023-04-09T10:16:50.079Z,15.77
2023-04-09T10:19:17.243Z,19.70
2023-04-09T10:22:08.044Z,18.67
2023-04-09T10:24:35.736Z,19.43
2023-04-09T10:27:16.420Z,15.02
2023-04-09T10:29:49.477Z,15.02
2023-04-09T10:32:23.920Z,17.95
2023-04-09T10:34:51.205Z,15.48
2023-04-09T10:37:26.156Z,14.27
2023-04-09T10:39:53.680Z,17.42
2023-04-09T10:42:39.189Z,16.25
2023-04-09T10:45:14.491Z,14.90
2023-04-09T10:47:43.278Z,16.52
2023-04-09T10:50:18.385Z,13.47
2023-04-09T10:52:45.475Z,12.00
2023-04-09T10:58:28.608Z,12.48
2023-04-09T11:00:56.085Z,14.93
2023-04-09T11:03:24.738Z,18.23
2023-04-09T11:06:03.024Z,13.95
2023-04-09T11:08:32.299Z,12.68
2023-04-09T11:14:58.368Z,8.80
2023-04-09T11:17:25.848Z,11.47
2023-04-09T11:19:52.575Z,10.45
2023-04-09T11:22:19.198Z,9.60
2023-04-09T11:24:51.225Z,9.35
2023-04-09T11:27:21.840Z,8.90
2023-04-09T11:29:48.808Z,11.53
2023-04-09T11:32:15.483Z,8.82
2023-04-09T11:34:42.158Z,9.05
2023-04-09T11:37:16.983Z,10.15
2023-04-09T11:39:46.790Z,10.05
2023-04-09T11:45:11.682Z,8.88
2023-04-09T11:47:41.317Z,7.78
2023-04-09T11:50:09.156Z,9.95
2023-04-09T11:52:36.336Z,8.55
2023-04-09T11:55:04.814Z,6.50
2023-04-09T11:57:39.646Z,6.40
2023-04-09T12:00:08.895Z,6.00
2023-04-09T12:02:40.817Z,6.65
2023-04-09T12:05:09.973Z,7.75
2023-04-09T12:07:38.667Z,8.00
2023-04-09T12:10:10.953Z,8.20
2023-04-09T12:12:43.732Z,8.82
2023-04-09T12:15:18.404Z,5.70
2023-04-09T12:17:49.589Z,6.18
2023-04-09T12:20:39.872Z,7.60
2023-04-09T12:23:07.457Z,6.57
2023-04-09T12:25:36.919Z,7.97
2023-04-09T12:28:04.550Z,7.68
2023-04-09T12:30:31.990Z,7.60
2023-04-09T12:32:58.820Z,6.23
2023-04-09T12:35:25.509Z,7.53
2023-04-09T12:37:52.514Z,9.15
2023-04-09T12:40:20.409Z,6.53
2023-04-09T12:42:47.237Z,7.38
2023-04-09T12:45:18.740Z,7.27
2023-04-09T12:47:45.714Z,8.10
2023-04-09T12:50:13.602Z,7.47
2023-04-09T12:52:40.307Z,7.93
2023-04-09T12:55:08.041Z,9.05
2023-04-09T12:57:35.210Z,8.43
2023-04-09T13:00:01.825Z,9.38
2023-04-09T13:02:28.832Z,7.72
2023-04-09T13:04:55.530Z,7.18
2023-04-09T13:07:22.841Z,8.50
2023-04-09T13:09:53.012Z,9.63
2023-04-09T13:12:21.822Z,7.72
2023-04-09T13:14:49.208Z,8.20
2023-04-09T13:17:16.105Z,8.95
2023-04-09T13:19:42.904Z,10.05
2023-04-09T13:22:10.515Z,7.77
2023-04-09T13:24:37.846Z,7.68
2023-04-09T13:27:09.724Z,9.15
2023-04-09T13:29:36.694Z,7.93
2023-04-09T13:32:07.264Z,9.00
2023-04-09T13:34:35.555Z,7.93
2023-04-09T13:37:02.951Z,7.25
2023-04-09T13:39:30.992Z,7.20
2023-04-09T13:44:52.183Z,7.68
2023-04-09T13:47:18.942Z,8.50
2023-04-09T13:49:45.980Z,7.97
2023-04-09T13:52:13.074Z,10.98
2023-04-09T13:54:39.850Z,9.88
2023-04-09T13:57:06.664Z,7.05
2023-04-09T13:59:33.324Z,7.00
2023-04-09T14:02:00.218Z,6.88
2023-04-09T14:04:27.129Z,7.55
2023-04-09T14:06:53.970Z,7.13
2023-04-09T14:09:20.607Z,8.10
2023-04-09T14:17:35.447Z,7.53
2023-04-09T14:20:04.024Z,6.63
2023-04-09T14:22:30.594Z,7.18
2023-04-09T14:24:57.164Z,6.93
2023-04-09T14:27:23.768Z,8.15
2023-04-09T14:29:50.900Z,12.05
2023-04-09T14:32:17.881Z,7.68
2023-04-09T14:34:44.562Z,8.25
2023-04-09T14:37:11.185Z,9.43
2023-04-09T14:39:37.822Z,7.10
2023-04-09T14:42:04.364Z,6.72
2023-04-09T14:44:31.788Z,8.90
2023-04-09T14:47:00.065Z,7.57
2023-04-09T14:49:27.046Z,7.20
2023-04-09T14:51:53.741Z,6.75
2023-04-09T14:54:20.358Z,7.35
2023-04-09T14:56:47.159Z,7.50
2023-04-09T14:59:14.165Z,7.88
2023-04-09T15:01:41.926Z,10.43
2023-04-09T15:04:08.778Z,8.18
2023-04-09T15:06:35.446Z,7.30
2023-04-09T15:09:02.235Z,7.22
2023-04-09T15:11:29.480Z,7.82
2023-04-09T15:13:58.051Z,6.70
2023-04-09T15:16:27.088Z,7.60
2023-04-09T15:18:56.447Z,5.72
2023-04-09T15:21:23.392Z,8.07
2023-04-09T15:23:54.919Z,8.00
2023-04-09T15:26:21.622Z,9.07
2023-04-09T15:28:48.178Z,7.93
2023-04-09T15:31:14.839Z,7.93
2023-04-09T15:33:42.610Z,7.63
2023-04-09T15:36:09.479Z,7.75
2023-04-09T15:38:36.208Z,9.93
2023-04-09T15:41:03.009Z,8.02
2023-04-09T15:43:29.500Z,7.93
2023-04-09T15:45:56.104Z,7.05
2023-04-09T15:48:22.622Z,7.50
2023-04-09T15:50:49.359Z,8.67
2023-04-09T15:53:16.456Z,7.65
2023-04-09T15:55:43.099Z,7.32
2023-04-09T15:58:09.636Z,7.03
2023-04-09T16:00:37.601Z,8.32
2023-04-09T16:03:04.594Z,6.70
2023-04-09T16:05:31.240Z,6.10
2023-04-09T16:07:59.722Z,7.90
2023-04-09T16:10:26.746Z,6.50
2023-04-09T16:15:50.682Z,6.87
2023-04-09T16:18:18.506Z,7.45
2023-04-09T16:20:45.123Z,5.22
2023-04-09T16:23:14.678Z,6.45
2023-04-09T16:25:41.550Z,6.93
2023-04-09T16:28:08.826Z,6.53
2023-04-09T16:30:40.080Z,7.90
2023-04-09T16:33:08.855Z,7.50
2023-04-09T16:35:38.870Z,6.75
2023-04-09T16:38:07.025Z,6.95
2023-04-09T16:40:33.727Z,6.33
2023-04-09T16:43:02.354Z,6.80
2023-04-09T16:45:29.150Z,7.60
2023-04-09T16:47:56.361Z,7.05
2023-04-09T16:50:23.517Z,7.22
2023-04-09T16:52:50.411Z,6.57
2023-04-09T16:55:17.596Z,6.50
2023-04-09T16:57:44.604Z,7.28
2023-04-09T17:00:12.875Z,8.48
2023-04-09T17:02:39.753Z,7.95
2023-04-09T17:05:07.006Z,9.43
2023-04-09T17:07:33.947Z,7.60
2023-04-09T17:10:00.685Z,7.30
2023-04-09T17:12:30.330Z,6.95
2023-04-09T17:14:56.896Z,7.28
2023-04-09T17:17:23.514Z,7.50
2023-04-09T17:19:50.343Z,7.90
2023-04-09T17:22:17.826Z,7.88
2023-04-09T17:24:45.032Z,7.40
2023-04-09T17:27:11.698Z,6.95
2023-04-09T17:29:38.473Z,6.90
2023-04-09T17:32:05.426Z,7.03
2023-04-09T17:34:31.927Z,10.20
2023-04-09T17:36:59.972Z,7.78
2023-04-09T17:39:26.999Z,8.38
2023-04-09T17:41:56.410Z,8.07
2023-04-09T17:44:26.732Z,9.45
2023-04-09T17:46:53.992Z,8.48
2023-04-09T17:49:22.410Z,9.45
2023-04-09T17:51:49.001Z,8.60
2023-04-09T17:54:15.673Z,7.63
2023-04-09T17:56:42.251Z,14.02
2023-04-09T17:59:08.750Z,7.13
2023-04-09T18:01:35.596Z,13.95
2023-04-09T18:04:02.507Z,8.07
2023-04-09T18:06:29.265Z,6.50
2023-04-09T18:08:55.884Z,8.02
2023-04-09T18:11:28.351Z,8.07
2023-04-09T18:13:54.910Z,7.45
2023-04-09T18:16:23.453Z,7.03
2023-04-09T18:18:50.035Z,8.70
2023-04-09T18:21:18.042Z,6.97
2023-04-09T18:23:46.590Z,8.05
2023-04-09T18:26:13.375Z,7.07
2023-04-09T18:28:40.370Z,7.45
2023-04-09T18:31:07.308Z,7.83
2023-04-09T18:33:34.374Z,8.23
2023-04-09T18:36:02.161Z,8.13
2023-04-09T18:38:29.838Z,6.78
2023-04-09T18:41:01.367Z,6.93
2023-04-09T18:43:28.224Z,7.87
2023-04-09T18:45:54.787Z,7.15
2023-04-09T18:48:21.670Z,8.07
2023-04-09T18:50:48.242Z,7.80
2023-04-09T18:53:15.026Z,8.48
2023-04-09T18:55:41.516Z,9.47
2023-04-09T18:58:11.101Z,8.55
2023-04-09T19:00:40.837Z,8.90
2023-04-09T19:03:08.882Z,8.20
2023-04-09T19:05:36.227Z,8.50
2023-04-09T19:08:04.984Z,8.43
2023-04-09T19:10:44.360Z,8.63
2023-04-09T19:13:10.884Z,9.40
2023-04-09T19:15:38.511Z,8.77
2023-04-09T19:18:05.161Z,8.82
2023-04-09T19:20:31.920Z,10.10
2023-04-09T19:22:59.242Z,14.25
2023-04-09T19:25:25.871Z,12.63
2023-04-09T19:27:54.586Z,10.38
2023-04-09T19:30:21.345Z,9.50
2023-04-09T19:32:48.023Z,9.00
2023-04-09T19:35:14.642Z,7.75
2023-04-09T19:37:41.667Z,13.20
2023-04-09T19:40:09.111Z,12.68
2023-04-09T19:42:35.839Z,10.38
2023-04-09T19:45:02.512Z,9.57
2023-04-09T19:47:29.611Z,9.82
2023-04-09T19:49:56.486Z,9.57
2023-04-09T19:52:23.084Z,10.02
2023-04-09T19:54:54.159Z,9.90
2023-04-09T19:57:20.881Z,11.60
2023-04-09T19:59:49.740Z,12.98
2023-04-09T20:02:16.821Z,9.00
2023-04-09T20:04:43.595Z,13.15
2023-04-09T20:07:10.143Z,13.48
2023-04-09T20:09:36.930Z,12.03
2023-04-09T20:12:06.452Z,9.20
2023-04-09T20:14:33.275Z,12.15
2023-04-09T20:17:00.164Z,11.55
2023-04-09T20:19:27.049Z,12.07
2023-04-09T20:21:54.863Z,14.93
2023-04-09T20:24:22.465Z,10.68
2023-04-09T20:26:48.996Z,12.50
2023-04-09T20:29:15.701Z,10.98
2023-04-09T20:31:43.597Z,9.85
2023-04-09T20:34:10.679Z,8.67
2023-04-09T20:36:37.890Z,10.43
2023-04-09T20:39:04.515Z,11.05
2023-04-09T20:41:31.127Z,9.50
2023-04-09T20:43:57.872Z,12.65
2023-04-09T20:46:24.525Z,10.53
2023-04-09T20:48:51.217Z,13.32
2023-04-09T20:51:17.749Z,11.93
2023-04-09T20:53:45.766Z,10.25
2023-04-09T20:56:12.506Z,14.73
2023-04-09T20:58:39.308Z,13.33
2023-04-09T21:01:07.865Z,14.45
2023-04-09T21:03:36.674Z,13.40
2023-04-09T21:06:03.558Z,12.20
2023-04-09T21:08:31.110Z,14.00
2023-04-09T21:10:57.813Z,11.17
2023-04-09T21:13:24.679Z,11.70
2023-04-09T21:15:51.299Z,15.05
2023-04-09T21:18:18.746Z,16.65
2023-04-09T21:20:46.480Z,12.80
2023-04-09T21:23:13.364Z,19.27
2023-04-09T21:25:40.059Z,14.32
2023-04-09T21:28:07.023Z,13.20
2023-04-09T21:30:34.615Z,16.80
2023-04-09T21:33:06.792Z,15.43
2023-04-09T21:35:35.090Z,15.07
2023-04-09T21:38:03.072Z,13.70
2023-04-09T21:40:30.780Z,13.10
2023-04-09T21:42:57.985Z,13.43
2023-04-09T21:45:24.720Z,19.40
2023-04-09T21:47:51.821Z,12.47
2023-04-09T21:50:18.925Z,15.13
2023-04-09T21:52:47.333Z,14.10
2023-04-09T21:55:14.167Z,14.25
2023-04-09T21:57:40.897Z,14.98
2023-04-09T22:00:10.472Z,13.60
2023-04-09T22:02:38.851Z,15.85
2023-04-09T22:05:06.009Z,17.52
2023-04-09T22:07:32.823Z,14.18
2023-04-09T22:09:59.626Z,14.50
2023-04-09T22:12:26.260Z,15.53
2023-04-09T22:14:52.931Z,17.25
2023-04-09T22:17:19.762Z,15.02
2023-04-09T22:19:46.660Z,18.33
2023-04-09T22:22:15.206Z,15.75
2023-04-09T22:24:43.288Z,15.03
2023-04-09T22:27:10.186Z,18.10
2023-04-09T22:29:37.203Z,14.25
2023-04-09T22:32:04.246Z,12.20
2023-04-09T22:34:31.071Z,15.50
2023-04-09T22:36:57.731Z,15.10
2023-04-09T22:39:24.527Z,13.70
2023-04-09T22:41:51.078Z,15.13
2023-04-09T22:44:17.822Z,17.35
2023-04-09T22:46:44.390Z,16.58
2023-04-09T22:49:11.843Z,14.93
2023-04-09T22:51:41.351Z,14.35
2023-04-09T22:54:08.484Z,17.00
2023-04-09T22:56:36.716Z,13.98
2023-04-09T22:59:03.586Z,15.13
2023-04-09T23:01:30.255Z,13.83
2023-04-09T23:03:56.865Z,14.95
2023-04-09T23:06:25.215Z,13.65
2023-04-09T23:08:52.171Z,18.15
2023-04-09T23:11:18.883Z,18.10
2023-04-09T23:13:45.490Z,16.00
2023-04-09T23:16:12.289Z,18.27
2023-04-09T23:18:39.199Z,15.55
2023-04-09T23:21:08.962Z,18.83
2023-04-09T23:23:37.136Z,18.10
2023-04-09T23:26:04.477Z,16.90
2023-04-09T23:28:31.290Z,20.67
2023-04-09T23:30:57.822Z,17.08
2023-04-09T23:33:24.667Z,16.05
2023-04-09T23:35:51.475Z,18.42
2023-04-09T23:38:18.150Z,16.70
2023-04-09T23:43:38.766Z,18.77
2023-04-09T23:46:05.385Z,15.18
2023-04-09T23:48:32.146Z,14.20
2023-04-09T23:50:58.700Z,12.93
2023-04-09T23:53:25.590Z,14.98
2023-04-09T23:55:52.815Z,14.48
2023-04-09T23:58:19.759Z,13.80
